Time;durP1;ratioP1;P1;durP2;ratioP2;P2;SDS_P1;SDS_P2;PMS_P1;PMS_P2;Temp;Humidity;BMP_temperature;BMP_pressure;BME280_temperature;BME280_humidity;BME280_pressure;Samples;Min_cycle;Max_cycle;Signal;HPM_P1;HPM_P2
2021/12/21 00:00:38;;;;;;;0.40;0.22;;;;;;;;;;5053376;28;20428;-67
2021/12/21 00:03:03;;;;;;;0.25;0.10;;;;;;;;;;5053576;28;20028;-68
2021/12/21 00:05:29;;;;;;;0.52;0.17;;;;;;;;;;5053301;28;20064;-69
2021/12/21 00:07:56;;;;;;;0.20;0.20;;;;;;;;;;5053758;28;20017;-68
2021/12/21 00:10:23;;;;;;;0.95;0.00;;;;;;;;;;5053346;28;20048;-69
2021/12/21 00:13:22;;;;;;;0.98;0.20;;;;;;;;;;5053208;28;20456;-69
2021/12/21 00:15:44;;;;;;;0.15;0.10;;;;;;;;;;5052838;28;20107;-69
2021/12/21 00:21:00;;;;;;;0.47;0.08;;;;;;;;;;5053028;28;20037;-69
2021/12/21 00:23:31;;;;;;;0.35;0.10;;;;;;;;;;5053076;28;20021;-69
2021/12/21 00:26:00;;;;;;;0.17;0.10;;;;;;;;;;5033232;28;20365;-69
2021/12/21 00:28:29;;;;;;;0.22;0.10;;;;;;;;;;5031672;28;20021;-68
2021/12/21 00:30:54;;;;;;;1.42;0.77;;;;;;;;;;5033067;28;20076;-69
2021/12/21 00:33:19;;;;;;;0.30;0.10;;;;;;;;;;5033026;28;20025;-69
2021/12/21 00:35:45;;;;;;;0.93;0.10;;;;;;;;;;5031869;28;20088;-68
2021/12/21 00:38:10;;;;;;;0.30;0.03;;;;;;;;;;5032829;28;20044;-69
2021/12/21 00:40:35;;;;;;;0.50;0.10;;;;;;;;;;5032683;28;20079;-70
2021/12/21 00:43:01;;;;;;;0.17;0.10;;;;;;;;;;5032943;28;20262;-69
2021/12/21 00:45:26;;;;;;;0.20;0.10;;;;;;;;;;5032795;28;20243;-70
2021/12/21 00:47:51;;;;;;;0.68;0.30;;;;;;;;;;5044501;28;20017;-69
2021/12/21 00:50:18;;;;;;;0.33;0.10;;;;;;;;;;5052530;28;20486;-69
2021/12/21 00:52:44;;;;;;;0.20;0.00;;;;;;;;;;5052454;28;20264;-67
2021/12/21 00:55:09;;;;;;;1.58;0.10;;;;;;;;;;5052683;28;20373;-69
2021/12/21 00:57:34;;;;;;;0.50;0.20;;;;;;;;;;5044823;28;20020;-69
2021/12/21 00:59:59;;;;;;;0.43;0.10;;;;;;;;;;5032817;28;20100;-70
2021/12/21 01:02:25;;;;;;;0.10;0.00;;;;;;;;;;5032417;28;20025;-70
2021/12/21 01:04:51;;;;;;;1.00;0.10;;;;;;;;;;5032752;28;20092;-70
2021/12/21 01:07:23;;;;;;;0.20;0.08;;;;;;;;;;5031230;28;20017;-70
2021/12/21 01:10:28;;;;;;;0.35;0.10;;;;;;;;;;5032405;28;20044;-70
2021/12/21 01:20:39;;;;;;;0.57;0.20;;;;;;;;;;5032189;28;20052;-69
2021/12/21 01:23:46;;;;;;;0.20;0.10;;;;;;;;;;5032391;28;20761;-69
2021/12/21 01:26:18;;;;;;;0.55;0.10;;;;;;;;;;5012298;28;20042;-70
2021/12/21 01:34:56;;;;;;;0.20;0.10;;;;;;;;;;4970802;28;20042;-69
2021/12/21 01:50:44;;;;;;;0.10;0.10;;;;;;;;;;4974630;28;20377;-69
2021/12/21 01:53:09;;;;;;;0.28;0.20;;;;;;;;;;4974783;28;20518;-69
2021/12/21 01:55:34;;;;;;;0.63;0.08;;;;;;;;;;4953435;29;20039;-69
2021/12/21 01:57:59;;;;;;;0.77;0.20;;;;;;;;;;4955364;29;20164;-69
2021/12/21 02:00:25;;;;;;;0.40;0.10;;;;;;;;;;4955068;29;20292;-69
2021/12/21 02:02:50;;;;;;;0.22;0.00;;;;;;;;;;4955154;29;20033;-68
2021/12/21 02:05:15;;;;;;;0.20;0.00;;;;;;;;;;4955223;29;20065;-68
2021/12/21 02:07:40;;;;;;;0.73;0.20;;;;;;;;;;4955020;29;20262;-69
2021/12/21 02:10:06;;;;;;;0.50;0.17;;;;;;;;;;4955323;28;20356;-69
2021/12/21 02:12:31;;;;;;;0.52;0.15;;;;;;;;;;4993738;28;20023;-69
2021/12/21 02:14:59;;;;;;;0.10;0.10;;;;;;;;;;4993887;28;20038;-70
2021/12/21 02:23:04;;;;;;;0.93;0.10;;;;;;;;;;5035429;28;20663;-70
2021/12/21 02:30:43;;;;;;;0.40;0.10;;;;;;;;;;5035544;28;20738;-69
2021/12/21 02:33:09;;;;;;;0.52;0.10;;;;;;;;;;5035388;28;20048;-69
2021/12/21 02:35:34;;;;;;;0.32;0.17;;;;;;;;;;5035131;28;20453;-69
2021/12/21 02:37:59;;;;;;;0.10;0.10;;;;;;;;;;5035206;28;20083;-69
2021/12/21 02:40:25;;;;;;;1.08;0.40;;;;;;;;;;5034949;28;20431;-69
2021/12/21 02:42:50;;;;;;;0.57;0.20;;;;;;;;;;5034989;28;20457;-69
2021/12/21 02:45:15;;;;;;;0.17;0.00;;;;;;;;;;5035115;28;20245;-69
2021/12/21 02:47:40;;;;;;;0.83;0.10;;;;;;;;;;5045233;28;20470;-69
2021/12/21 02:50:05;;;;;;;0.93;0.20;;;;;;;;;;5055140;28;20257;-69
2021/12/21 02:52:31;;;;;;;0.90;0.20;;;;;;;;;;5054832;28;20712;-69
2021/12/21 02:54:56;;;;;;;0.30;0.20;;;;;;;;;;5054832;28;20021;-70
2021/12/21 02:57:21;;;;;;;0.85;0.32;;;;;;;;;;5054858;28;20036;-69
2021/12/21 02:59:46;;;;;;;0.63;0.40;;;;;;;;;;5053379;28;20017;-70
2021/12/21 03:02:11;;;;;;;0.30;0.20;;;;;;;;;;5054565;28;20687;-71
2021/12/21 03:04:37;;;;;;;0.82;0.10;;;;;;;;;;5054443;28;20032;-69
2021/12/21 03:12:11;;;;;;;0.73;0.22;;;;;;;;;;5054755;28;20087;-69
2021/12/21 03:14:36;;;;;;;0.10;0.10;;;;;;;;;;5054434;28;20021;-70
2021/12/21 03:17:02;;;;;;;0.77;0.00;;;;;;;;;;5054483;28;20032;-69
2021/12/21 03:19:27;;;;;;;0.45;0.05;;;;;;;;;;5054270;28;20104;-69
2021/12/21 03:21:55;;;;;;;0.10;0.00;;;;;;;;;;5054019;28;20055;-69
2021/12/21 03:24:21;;;;;;;0.20;0.10;;;;;;;;;;5048469;28;20246;-69
2021/12/21 03:26:46;;;;;;;0.38;0.00;;;;;;;;;;5034115;28;20040;-70
2021/12/21 03:29:11;;;;;;;0.20;0.10;;;;;;;;;;5033531;28;20030;-70
2021/12/21 03:31:36;;;;;;;0.30;0.00;;;;;;;;;;5034111;28;20026;-70
2021/12/21 03:34:02;;;;;;;1.23;0.00;;;;;;;;;;5032966;28;20053;-69
2021/12/21 03:36:27;;;;;;;0.05;0.00;;;;;;;;;;5034002;28;20029;-69
2021/12/21 03:38:59;;;;;;;0.52;0.20;;;;;;;;;;5034046;28;20057;-69
2021/12/21 03:41:24;;;;;;;0.47;0.10;;;;;;;;;;5034039;28;20028;-70
2021/12/21 03:43:49;;;;;;;0.10;0.10;;;;;;;;;;5033851;28;20018;-70
2021/12/21 03:46:16;;;;;;;0.65;0.20;;;;;;;;;;5033807;28;20014;-69
2021/12/21 03:48:45;;;;;;;0.75;0.10;;;;;;;;;;5052441;28;20019;-69
2021/12/21 03:51:10;;;;;;;0.65;0.17;;;;;;;;;;5053838;28;20017;-70
2021/12/21 03:53:36;;;;;;;0.60;0.20;;;;;;;;;;5053616;28;20043;-69
2021/12/21 03:56:15;;;;;;;0.25;0.10;;;;;;;;;;5053717;28;20444;-70
2021/12/21 03:58:40;;;;;;;0.38;0.05;;;;;;;;;;5052176;28;20021;-70
2021/12/21 04:01:05;;;;;;;0.85;0.10;;;;;;;;;;5053780;28;20471;-69
2021/12/21 04:03:30;;;;;;;0.95;0.10;;;;;;;;;;5053408;28;20017;-69
2021/12/21 04:05:57;;;;;;;0.53;0.17;;;;;;;;;;5052167;28;20105;-69
2021/12/21 04:08:22;;;;;;;0.40;0.10;;;;;;;;;;5053532;28;20250;-68
2021/12/21 04:10:47;;;;;;;0.50;0.20;;;;;;;;;;5053027;28;20028;-69
2021/12/21 04:13:12;;;;;;;0.97;0.50;;;;;;;;;;5052107;28;20541;-69
2021/12/21 04:15:43;;;;;;;0.20;0.20;;;;;;;;;;5053160;28;20250;-69
2021/12/21 04:18:12;;;;;;;0.10;0.10;;;;;;;;;;5053117;28;20246;-69
2021/12/21 04:20:38;;;;;;;1.02;0.10;;;;;;;;;;5052784;28;20392;-69
2021/12/21 04:23:04;;;;;;;0.20;0.10;;;;;;;;;;5053160;28;20017;-70
2021/12/21 04:25:29;;;;;;;0.35;0.10;;;;;;;;;;5038101;28;20045;-69
2021/12/21 04:27:54;;;;;;;0.20;0.00;;;;;;;;;;5033129;28;20029;-70
2021/12/21 04:30:20;;;;;;;0.13;0.00;;;;;;;;;;5032072;28;20017;-69
2021/12/21 04:32:45;;;;;;;0.10;0.10;;;;;;;;;;5032861;28;20254;-70
2021/12/21 04:35:10;;;;;;;0.57;0.17;;;;;;;;;;5033088;28;20033;-70
2021/12/21 04:37:42;;;;;;;0.85;0.10;;;;;;;;;;5032924;28;20255;-69
2021/12/21 04:40:13;;;;;;;0.35;0.00;;;;;;;;;;5032766;28;20108;-69
2021/12/21 04:42:38;;;;;;;1.02;0.13;;;;;;;;;;5032798;28;20014;-69
2021/12/21 04:45:03;;;;;;;0.50;0.40;;;;;;;;;;5032900;28;20027;-70
2021/12/21 04:47:28;;;;;;;1.65;0.10;;;;;;;;;;5041425;28;20617;-69
2021/12/21 04:49:54;;;;;;;0.30;0.10;;;;;;;;;;5052670;28;20025;-69
2021/12/21 04:52:19;;;;;;;0.55;0.10;;;;;;;;;;5052464;28;20246;-70
2021/12/21 04:54:44;;;;;;;0.70;0.20;;;;;;;;;;5052487;28;20025;-70
2021/12/21 04:57:10;;;;;;;0.10;0.00;;;;;;;;;;5048574;28;20021;-70
2021/12/21 04:59:35;;;;;;;1.08;0.10;;;;;;;;;;5032495;28;20716;-70
2021/12/21 05:02:00;;;;;;;0.80;0.28;;;;;;;;;;5032603;28;20506;-70
2021/12/21 05:04:25;;;;;;;0.50;0.10;;;;;;;;;;5032432;28;20040;-70
2021/12/21 05:06:50;;;;;;;0.30;0.00;;;;;;;;;;5032502;28;20246;-69
2021/12/21 05:09:24;;;;;;;0.15;0.00;;;;;;;;;;5032481;28;20014;-69
2021/12/21 05:11:49;;;;;;;0.65;0.08;;;;;;;;;;5032437;28;20021;-69
2021/12/21 05:14:15;;;;;;;0.10;0.08;;;;;;;;;;5032243;28;20384;-69
2021/12/21 05:16:40;;;;;;;0.00;0.00;;;;;;;;;;5031076;28;20018;-69
2021/12/21 05:19:05;;;;;;;0.32;0.10;;;;;;;;;;5032456;28;20025;-69
2021/12/21 05:21:30;;;;;;;0.68;0.10;;;;;;;;;;5031565;28;20049;-69
2021/12/21 05:23:56;;;;;;;0.75;0.00;;;;;;;;;;5032155;28;20035;-69
2021/12/21 05:26:21;;;;;;;0.40;0.30;;;;;;;;;;5032154;28;20059;-70
2021/12/21 05:28:46;;;;;;;1.30;0.10;;;;;;;;;;5030862;28;20243;-69
2021/12/21 05:31:11;;;;;;;0.43;0.10;;;;;;;;;;5032348;28;20258;-68
2021/12/21 05:33:36;;;;;;;0.10;0.10;;;;;;;;;;5032396;28;20286;-70
2021/12/21 05:36:02;;;;;;;0.10;0.00;;;;;;;;;;5030969;28;20255;-69
2021/12/21 05:38:33;;;;;;;0.93;0.13;;;;;;;;;;5032039;28;20707;-69
2021/12/21 05:41:01;;;;;;;0.98;0.10;;;;;;;;;;5032106;28;20022;-69
2021/12/21 05:43:26;;;;;;;0.20;0.20;;;;;;;;;;5032177;28;20041;-69
2021/12/21 05:45:51;;;;;;;0.17;0.10;;;;;;;;;;5032016;28;20480;-70
2021/12/21 05:48:16;;;;;;;0.67;0.10;;;;;;;;;;5047317;28;20656;-69
2021/12/21 05:50:42;;;;;;;0.20;0.17;;;;;;;;;;5051873;28;20342;-69
2021/12/21 05:53:07;;;;;;;0.53;0.10;;;;;;;;;;5051978;28;20254;-69
2021/12/21 05:55:32;;;;;;;0.47;0.10;;;;;;;;;;5051847;28;20276;-69
2021/12/21 05:57:58;;;;;;;0.82;0.08;;;;;;;;;;5051890;28;20024;-69
2021/12/21 06:00:26;;;;;;;0.80;0.25;;;;;;;;;;5051679;28;20033;-70
2021/12/21 06:02:51;;;;;;;0.05;0.05;;;;;;;;;;5051793;28;20507;-68
2021/12/21 06:05:17;;;;;;;0.30;0.08;;;;;;;;;;5051883;28;20087;-69
2021/12/21 06:07:42;;;;;;;0.47;0.20;;;;;;;;;;5051688;28;20368;-68
2021/12/21 06:10:15;;;;;;;0.15;0.10;;;;;;;;;;5050608;28;20131;-69
2021/12/21 06:15:38;;;;;;;0.20;0.00;;;;;;;;;;5051811;28;20017;-69
2021/12/21 06:26:09;;;;;;;;;;;;;;;;;;5032128;28;20021;-67
2021/12/21 06:28:35;;;;;;;1.45;0.10;;;;;;;;;;5031672;28;19939;-69
2021/12/21 06:31:00;;;;;;;0.35;0.10;;;;;;;;;;5031765;28;20072;-68
2021/12/21 06:33:25;;;;;;;0.22;0.00;;;;;;;;;;5032980;28;20181;-69
2021/12/21 06:35:50;;;;;;;1.10;0.13;;;;;;;;;;5035199;28;20464;-69
2021/12/21 06:38:16;;;;;;;0.15;0.00;;;;;;;;;;5035152;28;20255;-69
2021/12/21 06:40:41;;;;;;;0.20;0.10;;;;;;;;;;5035040;28;20086;-70
2021/12/21 06:43:11;;;;;;;0.17;0.03;;;;;;;;;;5035154;28;20013;-69
2021/12/21 06:53:30;;;;;;;0.98;0.47;;;;;;;;;;5054862;28;20159;-69
2021/12/21 06:55:55;;;;;;;0.00;0.00;;;;;;;;;;5055130;28;20479;-69
2021/12/21 06:58:20;;;;;;;0.30;0.00;;;;;;;;;;5054662;28;20383;-69
2021/12/21 07:00:46;;;;;;;0.17;0.08;;;;;;;;;;5054615;28;20368;-70
2021/12/21 07:03:12;;;;;;;0.40;0.00;;;;;;;;;;5054839;28;20090;-68
2021/12/21 07:05:40;;;;;;;0.47;0.10;;;;;;;;;;5054553;28;20072;-69
2021/12/21 07:08:06;;;;;;;0.10;0.00;;;;;;;;;;5053270;28;20532;-69
2021/12/21 07:10:32;;;;;;;0.15;0.00;;;;;;;;;;5054567;28;20021;-69
2021/12/21 07:18:29;;;;;;;0.22;0.00;;;;;;;;;;5054328;28;20056;-68
2021/12/21 07:20:55;;;;;;;1.27;0.20;;;;;;;;;;5054297;28;20045;-69
2021/12/21 07:23:21;;;;;;;0.30;0.10;;;;;;;;;;5053038;28;20380;-69
2021/12/21 07:25:47;;;;;;;0.87;0.30;;;;;;;;;;5036933;28;20017;-69
2021/12/21 07:28:12;;;;;;;0.50;0.10;;;;;;;;;;5034242;28;20748;-70
2021/12/21 07:30:37;;;;;;;0.50;0.20;;;;;;;;;;5034213;28;20040;-68
2021/12/21 07:33:03;;;;;;;0.22;0.10;;;;;;;;;;5034255;28;20021;-69
2021/12/21 07:35:28;;;;;;;0.30;0.00;;;;;;;;;;5034223;28;20021;-69
2021/12/21 07:37:53;;;;;;;0.10;0.00;;;;;;;;;;5034346;28;20250;-69
2021/12/21 07:40:20;;;;;;;0.57;0.10;;;;;;;;;;5033898;28;20025;-68
2021/12/21 07:42:45;;;;;;;0.90;0.30;;;;;;;;;;5033909;28;20243;-69
2021/12/21 07:45:10;;;;;;;0.47;0.10;;;;;;;;;;5033493;28;20377;-68
2021/12/21 07:47:35;;;;;;;0.45;0.25;;;;;;;;;;5043592;28;20349;-68
2021/12/21 07:50:01;;;;;;;0.70;0.10;;;;;;;;;;5053931;28;20051;-68
2021/12/21 07:52:26;;;;;;;0.63;0.20;;;;;;;;;;5053640;28;20071;-69
2021/12/21 07:54:51;;;;;;;0.15;0.10;;;;;;;;;;5053621;28;20021;-70
2021/12/21 07:57:16;;;;;;;0.40;0.10;;;;;;;;;;5053771;28;20025;-70
2021/12/21 07:59:42;;;;;;;0.53;0.10;;;;;;;;;;5053461;28;20108;-70
2021/12/21 08:02:08;;;;;;;0.10;0.00;;;;;;;;;;5053665;28;20269;-69
2021/12/21 08:04:34;;;;;;;0.30;0.10;;;;;;;;;;5053373;28;20095;-69
2021/12/21 08:07:06;;;;;;;0.38;0.10;;;;;;;;;;5053873;28;20013;-69
2021/12/21 08:09:37;;;;;;;0.70;0.10;;;;;;;;;;5053424;28;20021;-69
2021/12/21 08:12:17;;;;;;;0.65;0.10;;;;;;;;;;5053464;28;20049;-69
2021/12/21 08:14:46;;;;;;;0.03;0.00;;;;;;;;;;5053250;28;20464;-69
2021/12/21 08:17:12;;;;;;;0.52;0.10;;;;;;;;;;5053388;28;20028;-68
2021/12/21 08:19:37;;;;;;;1.08;0.20;;;;;;;;;;5053365;28;20100;-70
2021/12/21 08:22:03;;;;;;;0.52;0.10;;;;;;;;;;5053143;28;20073;-69
2021/12/21 08:24:29;;;;;;;0.28;0.00;;;;;;;;;;5045048;28;20104;-70
2021/12/21 08:26:55;;;;;;;0.25;0.05;;;;;;;;;;5033266;28;20342;-68
2021/12/21 08:29:20;;;;;;;0.75;0.30;;;;;;;;;;5033182;28;20068;-69
2021/12/21 08:31:46;;;;;;;0.20;0.00;;;;;;;;;;5032953;28;20048;-69
2021/12/21 08:34:11;;;;;;;0.20;0.20;;;;;;;;;;5032970;28;20025;-69
2021/12/21 08:36:37;;;;;;;0.32;0.10;;;;;;;;;;5033103;28;20067;-69
2021/12/21 08:39:04;;;;;;;0.50;0.00;;;;;;;;;;5033385;28;20346;-70
2021/12/21 08:41:29;;;;;;;0.50;0.10;;;;;;;;;;5032801;28;20091;-69
2021/12/21 08:43:54;;;;;;;0.60;0.20;;;;;;;;;;5033159;28;20545;-69
2021/12/21 08:46:19;;;;;;;0.95;0.10;;;;;;;;;;5033241;28;20261;-68
2021/12/21 08:48:46;;;;;;;0.98;0.10;;;;;;;;;;5051918;28;20399;-69
2021/12/21 08:51:11;;;;;;;0.20;0.15;;;;;;;;;;5052754;28;20017;-69
2021/12/21 08:53:42;;;;;;;0.30;0.10;;;;;;;;;;5052574;28;20107;-69
2021/12/21 08:56:07;;;;;;;0.52;0.25;;;;;;;;;;5052014;28;20032;-68
2021/12/21 08:58:33;;;;;;;0.32;0.00;;;;;;;;;;5036935;28;20033;-69
2021/12/21 09:00:58;;;;;;;0.77;0.20;;;;;;;;;;5032595;28;20025;-68
2021/12/21 09:03:24;;;;;;;0.00;0.00;;;;;;;;;;5032656;28;20400;-69
2021/12/21 09:05:49;;;;;;;0.13;0.00;;;;;;;;;;5031509;28;20028;-70
2021/12/21 09:08:14;;;;;;;0.27;0.10;;;;;;;;;;5032378;28;20101;-69
2021/12/21 09:10:40;;;;;;;1.52;0.15;;;;;;;;;;5032355;28;20254;-69
2021/12/21 09:13:06;;;;;;;0.10;0.00;;;;;;;;;;5031585;28;20021;-69
2021/12/21 09:15:31;;;;;;;0.32;0.10;;;;;;;;;;5031334;28;20096;-67
2021/12/21 09:17:57;;;;;;;1.05;0.10;;;;;;;;;;5025960;28;20021;-69
2021/12/21 09:20:23;;;;;;;0.60;0.00;;;;;;;;;;5026927;28;20045;-69
2021/12/21 09:22:49;;;;;;;0.52;0.10;;;;;;;;;;5026076;28;20389;-69
2021/12/21 09:25:15;;;;;;;0.17;0.00;;;;;;;;;;5030187;28;20040;-69
2021/12/21 09:27:40;;;;;;;0.43;0.08;;;;;;;;;;5029680;28;20017;-69
2021/12/21 09:30:07;;;;;;;0.10;0.10;;;;;;;;;;5028902;28;20044;-69
2021/12/21 09:32:32;;;;;;;0.40;0.20;;;;;;;;;;5034692;28;20092;-67
2021/12/21 09:34:57;;;;;;;0.10;0.00;;;;;;;;;;5034633;28;20104;-70
2021/12/21 09:37:23;;;;;;;0.90;0.20;;;;;;;;;;5028263;28;20769;-68
2021/12/21 09:39:50;;;;;;;0.30;0.00;;;;;;;;;;5027759;28;20014;-69
2021/12/21 09:42:17;;;;;;;0.45;0.10;;;;;;;;;;5026808;28;20030;-71
2021/12/21 09:44:42;;;;;;;0.05;0.05;;;;;;;;;;5025128;28;20018;-70
2021/12/21 09:47:10;;;;;;;1.10;0.28;;;;;;;;;;5028848;28;20036;-71
2021/12/21 09:49:35;;;;;;;0.63;0.10;;;;;;;;;;5031984;28;20097;-70
2021/12/21 09:52:01;;;;;;;0.10;0.10;;;;;;;;;;5032388;28;20105;-69
2021/12/21 09:54:27;;;;;;;0.08;0.00;;;;;;;;;;5031888;28;20116;-68
2021/12/21 09:56:52;;;;;;;0.20;0.08;;;;;;;;;;5031947;28;20021;-70
2021/12/21 09:59:17;;;;;;;1.17;0.13;;;;;;;;;;5049248;28;20075;-69
2021/12/21 10:01:42;;;;;;;0.70;0.10;;;;;;;;;;5051730;28;20021;-69
2021/12/21 10:04:08;;;;;;;0.82;0.20;;;;;;;;;;5051617;28;20472;-69
2021/12/21 10:06:47;;;;;;;0.68;0.10;;;;;;;;;;5051792;28;20063;-69
2021/12/21 10:09:13;;;;;;;0.45;0.00;;;;;;;;;;5053242;28;20033;-70
2021/12/21 10:11:42;;;;;;;0.38;0.10;;;;;;;;;;5045322;28;20013;-70
2021/12/21 10:14:07;;;;;;;0.13;0.10;;;;;;;;;;5035377;28;20021;-70
2021/12/21 10:16:32;;;;;;;0.47;0.20;;;;;;;;;;5034720;28;20555;-69
2021/12/21 10:18:58;;;;;;;0.40;0.13;;;;;;;;;;5034424;28;20029;-69
2021/12/21 10:21:23;;;;;;;0.67;0.10;;;;;;;;;;5034708;28;20049;-69
2021/12/21 10:23:50;;;;;;;0.75;0.15;;;;;;;;;;5034427;28;20297;-69
2021/12/21 10:26:21;;;;;;;0.82;0.10;;;;;;;;;;5034237;28;20493;-68
2021/12/21 10:28:50;;;;;;;0.60;0.43;;;;;;;;;;5029680;28;20025;-68
2021/12/21 10:31:27;;;;;;;1.88;0.28;;;;;;;;;;5032490;28;20492;-69
2021/12/21 10:33:54;;;;;;;1.02;0.20;;;;;;;;;;5040731;28;20021;-69
2021/12/21 10:36:19;;;;;;;0.20;0.20;;;;;;;;;;5039711;28;20100;-70
2021/12/21 10:38:50;;;;;;;0.17;0.10;;;;;;;;;;5034814;28;20100;-68
2021/12/21 10:41:17;;;;;;;0.20;0.10;;;;;;;;;;5030261;28;20017;-69
2021/12/21 10:43:43;;;;;;;0.55;0.22;;;;;;;;;;5034079;28;20021;-68
2021/12/21 10:46:09;;;;;;;0.85;0.20;;;;;;;;;;5034409;28;20020;-68
2021/12/21 10:48:36;;;;;;;1.08;0.10;;;;;;;;;;5032582;28;20021;-69
2021/12/21 10:51:02;;;;;;;0.13;0.10;;;;;;;;;;5044299;28;20059;-69
2021/12/21 10:53:27;;;;;;;1.15;0.30;;;;;;;;;;5044576;28;20357;-69
2021/12/21 10:56:02;;;;;;;0.65;0.10;;;;;;;;;;5033286;28;20056;-67
2021/12/21 10:58:28;;;;;;;0.55;0.10;;;;;;;;;;5027860;28;20097;-68
2021/12/21 11:00:55;;;;;;;0.22;0.10;;;;;;;;;;5032626;28;20379;-69
2021/12/21 11:03:35;;;;;;;0.90;0.15;;;;;;;;;;5033669;28;20041;-69
2021/12/21 11:06:08;;;;;;;0.13;0.10;;;;;;;;;;5033663;28;20105;-69
2021/12/21 11:08:38;;;;;;;0.43;0.17;;;;;;;;;;5028663;28;20035;-70
2021/12/21 11:11:09;;;;;;;0.40;0.20;;;;;;;;;;5031599;28;20026;-69
2021/12/21 11:13:34;;;;;;;1.27;0.10;;;;;;;;;;5032584;28;20113;-68
2021/12/21 11:16:04;;;;;;;0.52;0.08;;;;;;;;;;5032156;28;20112;-67
2021/12/21 11:18:29;;;;;;;0.50;0.15;;;;;;;;;;5030835;28;20026;-69
2021/12/21 11:20:55;;;;;;;0.10;0.10;;;;;;;;;;5031858;28;20083;-68
2021/12/21 11:23:21;;;;;;;0.10;0.03;;;;;;;;;;5031379;28;20780;-69
2021/12/21 11:25:49;;;;;;;0.10;0.10;;;;;;;;;;5033359;28;20389;-69
2021/12/21 11:28:16;;;;;;;1.20;0.13;;;;;;;;;;5033026;28;20078;-69
2021/12/21 11:30:41;;;;;;;0.57;0.10;;;;;;;;;;5031017;28;20052;-68
2021/12/21 11:33:07;;;;;;;0.28;0.10;;;;;;;;;;5031939;28;20025;-69
2021/12/21 11:38:01;;;;;;;0.30;0.13;;;;;;;;;;5034504;28;20117;-69
2021/12/21 11:40:30;;;;;;;0.85;0.10;;;;;;;;;;5033858;28;20025;-69
2021/12/21 11:43:21;;;;;;;0.17;0.00;;;;;;;;;;5034003;28;20021;-68
2021/12/21 11:45:46;;;;;;;0.75;0.15;;;;;;;;;;5034143;28;20507;-69
2021/12/21 11:48:11;;;;;;;0.50;0.05;;;;;;;;;;5033921;28;20457;-69
2021/12/21 11:50:38;;;;;;;0.57;0.20;;;;;;;;;;5033919;28;20479;-69
2021/12/21 11:53:07;;;;;;;0.38;0.10;;;;;;;;;;5033981;28;20595;-69
2021/12/21 11:55:34;;;;;;;0.22;0.10;;;;;;;;;;5033823;28;20151;-67
2021/12/21 11:58:00;;;;;;;0.82;0.30;;;;;;;;;;5033944;28;20045;-69
2021/12/21 12:00:28;;;;;;;0.22;0.10;;;;;;;;;;5033493;28;20028;-68
2021/12/21 12:02:53;;;;;;;0.20;0.10;;;;;;;;;;5033712;28;20508;-69
2021/12/21 12:05:21;;;;;;;0.20;0.10;;;;;;;;;;5032350;28;20022;-69
2021/12/21 12:07:58;;;;;;;0.38;0.20;;;;;;;;;;5033472;28;20025;-69
2021/12/21 12:10:23;;;;;;;0.80;0.00;;;;;;;;;;5033437;28;20092;-69
2021/12/21 12:12:48;;;;;;;0.30;0.05;;;;;;;;;;5033444;28;20096;-69
2021/12/21 12:15:15;;;;;;;0.10;0.00;;;;;;;;;;5032939;28;20097;-69
2021/12/21 12:17:47;;;;;;;0.20;0.10;;;;;;;;;;5032210;28;20297;-69
2021/12/21 12:20:14;;;;;;;0.50;0.28;;;;;;;;;;5032684;28;20025;-68
2021/12/21 12:22:40;;;;;;;0.35;0.10;;;;;;;;;;5032320;28;20040;-68
2021/12/21 12:25:08;;;;;;;0.73;0.08;;;;;;;;;;5031906;28;20017;-68
2021/12/21 12:27:42;;;;;;;1.15;0.30;;;;;;;;;;5032310;28;20384;-68
2021/12/21 12:30:12;;;;;;;1.20;0.20;;;;;;;;;;5032021;28;20026;-68
2021/12/21 12:32:41;;;;;;;0.17;0.10;;;;;;;;;;5031097;28;20064;-69
2021/12/21 12:35:11;;;;;;;0.30;0.10;;;;;;;;;;5032777;28;20021;-69
2021/12/21 12:37:55;;;;;;;0.25;0.10;;;;;;;;;;5032549;28;20021;-69
2021/12/21 12:40:23;;;;;;;1.02;0.20;;;;;;;;;;5032761;28;20028;-69
2021/12/21 12:42:55;;;;;;;1.65;0.10;;;;;;;;;;5029474;28;20029;-69
2021/12/21 12:45:22;;;;;;;0.55;0.10;;;;;;;;;;5013204;28;20072;-69
2021/12/21 12:47:54;;;;;;;0.22;0.10;;;;;;;;;;5013013;28;20014;-70
2021/12/21 12:50:24;;;;;;;0.63;0.10;;;;;;;;;;5013046;28;20018;-68
2021/12/21 12:52:51;;;;;;;0.40;0.20;;;;;;;;;;5013017;28;20030;-69
2021/12/21 12:55:17;;;;;;;1.52;0.28;;;;;;;;;;5018721;28;20009;-69
2021/12/21 12:57:50;;;;;;;0.52;0.10;;;;;;;;;;5036053;28;20017;-69
2021/12/21 13:00:21;;;;;;;0.32;0.10;;;;;;;;;;5031128;28;20499;-72
2021/12/21 13:03:09;;;;;;;0.30;0.00;;;;;;;;;;5038543;28;20307;-69
2021/12/21 13:05:39;;;;;;;0.95;0.10;;;;;;;;;;5012800;28;20046;-70
2021/12/21 13:08:05;;;;;;;0.57;0.20;;;;;;;;;;5019500;28;20392;-69
2021/12/21 13:10:30;;;;;;;0.32;0.10;;;;;;;;;;5044389;28;20055;-69
2021/12/21 13:12:57;;;;;;;1.23;0.10;;;;;;;;;;5041183;28;20524;-68
2021/12/21 13:15:30;;;;;;;0.10;0.00;;;;;;;;;;5035499;28;20541;-69
2021/12/21 13:18:00;;;;;;;0.00;0.00;;;;;;;;;;5032485;28;20079;-70
2021/12/21 13:20:25;;;;;;;0.65;0.17;;;;;;;;;;5031719;28;20048;-68
2021/12/21 13:22:50;;;;;;;0.00;0.00;;;;;;;;;;5032038;28;20461;-69
2021/12/21 13:25:17;;;;;;;0.20;0.00;;;;;;;;;;5031804;28;20274;-69
2021/12/21 13:27:42;;;;;;;1.08;0.20;;;;;;;;;;5031652;28;20099;-68
2021/12/21 13:30:08;;;;;;;0.30;0.20;;;;;;;;;;5031608;28;20546;-69
2021/12/21 13:32:34;;;;;;;1.25;0.10;;;;;;;;;;5031629;28;20033;-69
2021/12/21 13:34:59;;;;;;;0.15;0.10;;;;;;;;;;5028799;28;20036;-69
2021/12/21 13:37:27;;;;;;;1.98;0.15;;;;;;;;;;5045807;28;20028;-70
2021/12/21 13:39:56;;;;;;;0.70;0.20;;;;;;;;;;5046830;28;20026;-69
2021/12/21 13:42:22;;;;;;;0.10;0.08;;;;;;;;;;5030836;28;20420;-70
2021/12/21 13:44:47;;;;;;;0.47;0.10;;;;;;;;;;5035140;28;20017;-69
2021/12/21 13:47:19;;;;;;;0.15;0.10;;;;;;;;;;5036056;28;20025;-70
2021/12/21 13:49:59;;;;;;;1.13;0.10;;;;;;;;;;5035521;28;20076;-69
2021/12/21 13:52:25;;;;;;;0.20;0.03;;;;;;;;;;5031393;28;20033;-69
2021/12/21 13:54:51;;;;;;;0.43;0.00;;;;;;;;;;5027258;28;20017;-69
2021/12/21 13:57:16;;;;;;;0.20;0.10;;;;;;;;;;5034016;28;20047;-69
2021/12/21 13:59:42;;;;;;;1.02;0.10;;;;;;;;;;5035683;28;20059;-69
2021/12/21 14:02:08;;;;;;;1.15;0.10;;;;;;;;;;5034935;28;20536;-69
2021/12/21 14:04:39;;;;;;;0.10;0.05;;;;;;;;;;5039009;28;20091;-69
2021/12/21 14:07:05;;;;;;;0.13;0.10;;;;;;;;;;5048848;28;20017;-69
2021/12/21 14:09:30;;;;;;;0.52;0.10;;;;;;;;;;5027326;28;20482;-68
2021/12/21 14:11:56;;;;;;;0.73;0.10;;;;;;;;;;5035375;28;20404;-68
2021/12/21 14:14:22;;;;;;;1.45;0.60;;;;;;;;;;5034255;28;20294;-69
2021/12/21 14:16:49;;;;;;;0.10;0.10;;;;;;;;;;5040277;28;20024;-69
2021/12/21 14:19:16;;;;;;;0.40;0.20;;;;;;;;;;5023111;28;20037;-69
2021/12/21 14:21:41;;;;;;;1.10;0.20;;;;;;;;;;5026818;28;20033;-69
2021/12/21 14:24:09;;;;;;;0.30;0.30;;;;;;;;;;5029844;28;20422;-68
2021/12/21 14:26:38;;;;;;;0.10;0.00;;;;;;;;;;5034327;28;20017;-68
2021/12/21 14:29:08;;;;;;;0.20;0.17;;;;;;;;;;5034388;28;20354;-69
2021/12/21 14:32:00;;;;;;;0.00;0.00;;;;;;;;;;5030760;28;20024;-69
2021/12/21 14:34:26;;;;;;;0.20;0.00;;;;;;;;;;5030809;28;20033;-68
2021/12/21 14:36:52;;;;;;;0.38;0.10;;;;;;;;;;5035124;28;20052;-68
2021/12/21 14:39:18;;;;;;;0.50;0.10;;;;;;;;;;5036337;28;20073;-68
2021/12/21 14:41:45;;;;;;;0.68;0.10;;;;;;;;;;5017849;28;20070;-68
2021/12/21 14:44:10;;;;;;;0.10;0.10;;;;;;;;;;5027914;28;20029;-68
2021/12/21 14:46:37;;;;;;;0.32;0.10;;;;;;;;;;5035042;28;20452;-68
2021/12/21 14:49:04;;;;;;;0.40;0.00;;;;;;;;;;5033589;28;20037;-68
2021/12/21 14:51:37;;;;;;;1.10;0.32;;;;;;;;;;5038393;28;20017;-68
2021/12/21 14:54:06;;;;;;;2.30;0.20;;;;;;;;;;5034592;28;20513;-67
2021/12/21 14:56:34;;;;;;;0.50;0.10;;;;;;;;;;5036433;28;20021;-67
2021/12/21 14:59:03;;;;;;;0.35;0.15;;;;;;;;;;5033989;28;20112;-67
2021/12/21 15:01:40;;;;;;;0.28;0.10;;;;;;;;;;5033467;28;20017;-67
2021/12/21 15:04:16;;;;;;;0.25;0.10;;;;;;;;;;5034839;28;20022;-68
2021/12/21 15:06:41;;;;;;;0.63;0.20;;;;;;;;;;5033248;28;20375;-68
2021/12/21 15:09:07;;;;;;;0.65;0.10;;;;;;;;;;5034737;28;20097;-67
2021/12/21 15:11:32;;;;;;;0.10;0.10;;;;;;;;;;5033373;28;20064;-67
2021/12/21 15:13:57;;;;;;;0.30;0.13;;;;;;;;;;5034695;28;20025;-67
2021/12/21 15:16:22;;;;;;;0.00;0.00;;;;;;;;;;5034508;28;20140;-68
2021/12/21 15:18:47;;;;;;;0.67;0.10;;;;;;;;;;5034441;28;20052;-69
2021/12/21 15:21:12;;;;;;;0.77;0.20;;;;;;;;;;5034310;28;20770;-69
2021/12/21 15:23:38;;;;;;;0.47;0.10;;;;;;;;;;5034249;28;20266;-70
2021/12/21 15:26:03;;;;;;;0.30;0.00;;;;;;;;;;5034466;28;20266;-70
2021/12/21 15:28:28;;;;;;;0.33;0.10;;;;;;;;;;5035595;28;20018;-66
2021/12/21 15:30:53;;;;;;;1.67;0.47;;;;;;;;;;5036863;28;20281;-66
2021/12/21 15:33:18;;;;;;;0.25;0.05;;;;;;;;;;5034213;28;20072;-67
2021/12/21 15:35:43;;;;;;;0.97;0.20;;;;;;;;;;5034099;28;20041;-66
2021/12/21 15:38:11;;;;;;;0.10;0.03;;;;;;;;;;5034191;28;20057;-66
2021/12/21 15:40:37;;;;;;;0.30;0.10;;;;;;;;;;5034022;28;20040;-66
2021/12/21 15:43:06;;;;;;;0.55;0.10;;;;;;;;;;5034254;28;20014;-67
2021/12/21 15:45:31;;;;;;;0.43;0.10;;;;;;;;;;5033972;28;20041;-67
2021/12/21 15:47:57;;;;;;;0.50;0.10;;;;;;;;;;5036272;28;20068;-66
2021/12/21 15:50:23;;;;;;;0.10;0.10;;;;;;;;;;5033875;28;20036;-66
2021/12/21 15:52:48;;;;;;;1.45;0.25;;;;;;;;;;5033843;28;20021;-66
2021/12/21 15:55:15;;;;;;;0.00;0.00;;;;;;;;;;5033971;28;20025;-66